Station: Mount Read  

  Atmospheric Gas Attenuation - ITU Rec 676-11   ----------------- dB/100km -----------------
Date Time Temp RH % AH g/m3 Dew Point Wind Direction Speed kph Gust kph Barometer mB Rainfall Since 9am 24GHz 47GHz 76GHz 122GHz 134GHz 241GHz
08/05 12:30 4.1 100 6.41 4.1 48 67 1017.1 4.4 15.3 25.2 35.6 93.0 80.3 273.5
08/05 12:20 4.1 100 6.41 4.1 44 57 1016.8 4 15.3 25.2 35.6 93.0 80.2 273.5
08/05 12:10 4.2 100 6.45 4.2 50 59 1016.7 3.6 15.4 25.2 35.7 93.3 80.7 275.0
08/05 12:00 4 100 6.36 4 46 57 1016.7 3.2 15.2 25.1 35.4 92.6 79.6 271.4
08/05 11:50 3.7 100 6.24 3.7 52 61 1016.5 3 15.0 25.0 35.0 91.5 78.3 266.5
08/05 11:40 3.9 100 6.32 3.9 56 65 1016.4 3 15.1 25.1 35.3 92.2 79.2 269.7
08/05 11:30 3.8 100 6.28 3.8 50 67 1016.4 2.8 15.0 25.0 35.1 91.9 78.7 268.1
08/05 11:20 3.6 100 6.2 3.6 50 57 1016.4 2.6 14.9 25.0 34.9 91.2 77.8 264.9
08/05 11:10 3.8 100 6.28 3.8 44 54 1016.4 2.6 15.0 25.0 35.1 91.9 78.7 268.1
08/05 11:00 3.6 100 6.2 3.6 44 57 1016.2 2 14.9 25.0 34.9 91.2 77.8 264.9
08/05 10:50 3.3 100 6.07 3.3 44 59 1015.8 1.8 14.6 24.8 34.4 90.0 76.3 259.5
08/05 10:40 3.4 100 6.11 3.4 46 54 1015.6 1.6 14.7 24.8 34.6 90.3 76.7 261.0
08/05 10:30 3.4 100 6.11 3.4 56 72 1015.1 1.4 14.7 24.8 34.5 90.3 76.7 260.9
08/05 10:20 3.3 100 6.07 3.3 61 69 1015 1.2 14.6 24.8 34.4 90.0 76.2 259.3
08/05 10:10 2.9 100 5.91 2.9 61 72 1014.7 1 14.3 24.6 33.9 88.6 74.4 252.8
08/05 10:00 3 100 5.95 3 63 83 1014.7 1 14.4 24.6 34.0 88.9 74.8 254.4
08/05 09:50 3.3 100 6.07 3.3 57 69 1014.4 0.8 14.6 24.8 34.4 89.9 76.2 259.2
08/05 09:40 3.1 100 5.99 3.1 56 65 1014.3 0.6 14.4 24.7 34.1 89.2 75.3 255.9
08/05 09:30 3.1 100 5.99 3.1 59 80 1014.1 0.4 14.4 24.7 34.1 89.2 75.2 255.9
08/05 09:20 3.1 100 5.99 3.1 54 69 1014 0 14.4 24.7 34.1 89.2 75.2 255.9
08/05 09:10 2.9 100 5.91 2.9 63 72 1013.8 0 14.3 24.6 33.9 88.5 74.3 252.6
08/05 09:00 2.8 100 5.87 2.8 65 83 1013.5 0 14.2 24.5 33.7 88.1 73.8 250.9
08/05 08:50 2.7 100 5.83 2.7 67 87 1013.1 90.6 14.1 24.5 33.6 87.8 73.4 249.2
08/05 08:40 2.9 100 5.91 2.9 70 83 1012.8 90.4 14.3 24.5 33.8 88.4 74.2 252.4
08/05 08:30 2.6 100 5.79 2.6 72 89 1012.7 90.2 14.0 24.4 33.4 87.4 72.9 247.5
08/05 08:20 2.6 100 5.79 2.6 74 93 1012.6 90.2 14.0 24.4 33.4 87.4 72.9 247.5
08/05 08:10 2.8 100 5.87 2.8 59 70 1012.5 90 14.2 24.5 33.7 88.0 73.8 250.7
08/05 08:00 2.5 100 5.75 2.5 69 89 1012.5 90 13.9 24.4 33.3 87.0 72.4 245.9
08/05 07:50 2.7 100 5.83 2.7 72 89 1012.4 89.8 14.1 24.4 33.6 87.7 73.3 249.1
08/05 07:40 2.7 100 5.83 2.7 61 76 1012.6 89.6 14.1 24.4 33.6 87.7 73.3 249.1
08/05 07:30 2.6 100 5.79 2.6 67 85 1012.3 89.2 14.0 24.4 33.4 87.4 72.8 247.4
08/05 07:20 2.5 100 5.75 2.5 69 82 1011.8 89 13.9 24.3 33.3 87.0 72.4 245.7
08/05 07:10 2.1 100 5.6 2.1 65 80 1011.9 89 13.6 24.2 32.8 85.8 70.7 239.7
08/05 07:00 2.5 100 5.75 2.5 57 91 1012.2 89 13.9 24.3 33.3 87.0 72.4 245.8
08/05 06:50 2.8 100 5.87 2.8 61 78 1011.8 88.4 14.2 24.5 33.7 88.0 73.7 250.5
08/05 06:40 2.6 100 5.79 2.6 72 85 1011.6 88.2 14.0 24.4 33.4 87.3 72.8 247.3
08/05 06:30 2.3 100 5.68 2.3 70 93 1011.4 88.2 13.8 24.3 33.1 86.4 71.6 242.9
08/05 06:20 2.4 100 5.72 2.4 80 89 1011.2 88.2 13.9 24.3 33.2 86.7 72.0 244.4
08/05 06:10 2.7 100 5.83 2.7 72 82 1011.5 88 14.1 24.4 33.5 87.6 73.3 248.9
08/05 06:00 2.7 100 5.83 2.7 59 80 1011.7 88 14.1 24.4 33.5 87.6 73.3 248.9
08/05 05:50 2.9 100 5.91 2.9 46 61 1011.9 87.8 14.3 24.5 33.8 88.3 74.2 252.2
08/05 05:40 2.6 100 5.79 2.6 63 76 1011.7 87.8 14.0 24.4 33.4 87.3 72.8 247.3
08/05 05:30 2.6 100 5.79 2.6 57 78 1011.8 87.6 14.0 24.4 33.4 87.3 72.8 247.3
08/05 05:20 2.6 100 5.79 2.6 61 72 1011.7 87 14.0 24.4 33.4 87.3 72.8 247.3
08/05 05:10 2.7 100 5.83 2.7 61 74 1011.7 86.4 14.1 24.4 33.5 87.6 73.3 248.9
08/05 05:00 2.8 100 5.87 2.8 56 80 1011.8 86.2 14.2 24.5 33.7 88.0 73.7 250.5
08/05 04:50 2.8 100 5.87 2.8 48 54 1011.6 86 14.2 24.4 33.6 88.0 73.7 250.5
08/05 04:40 2.6 100 5.79 2.6 65 83 1011.1 86 14.0 24.3 33.4 87.2 72.8 247.2
08/05 04:30 2.5 100 5.75 2.5 59 85 1011.1 86 13.9 24.3 33.3 86.9 72.3 245.6
08/05 04:20 2.4 100 5.72 2.4 61 74 1010.9 85.8 13.9 24.3 33.2 86.7 72.0 244.4
08/05 04:10 2.9 100 5.91 2.9 63 80 1011 85.8 14.3 24.5 33.7 88.2 74.1 252.0
08/05 04:00 2.9 100 5.91 2.9 63 83 1010.7 85.4 14.3 24.4 33.7 88.2 74.1 251.9
08/05 03:50 2.9 100 5.91 2.9 63 80 1010.4 85.4 14.3 24.4 33.7 88.2 74.1 251.9
08/05 03:40 2.7 100 5.83 2.7 57 67 1010.2 85 14.1 24.3 33.5 87.5 73.2 248.6
08/05 03:30 2.5 100 5.75 2.5 69 96 1010 85 13.9 24.3 33.2 86.8 72.2 245.3
08/05 03:20 2.5 100 5.75 2.5 69 82 1010 84.4 13.9 24.3 33.2 86.8 72.2 245.3
08/05 03:10 2.8 100 5.87 2.8 72 83 1009.9 83.6 14.2 24.4 33.6 87.8 73.6 250.1
08/05 03:00 2.8 100 5.87 2.8 65 91 1009.6 83 14.2 24.4 33.6 87.8 73.6 250.1
08/05 02:50 2.9 100 5.91 2.9 57 78 1010.2 82.6 14.3 24.4 33.7 88.2 74.1 251.8
08/05 02:40 3 100 5.95 3 69 78 1010.1 82.6 14.3 24.5 33.8 88.5 74.5 253.4
08/05 02:30 2.8 100 5.87 2.8 57 80 1010.6 82.4 14.2 24.4 33.6 87.9 73.6 250.3
08/05 02:20 2.6 100 5.79 2.6 52 69 1010.4 82.2 14.0 24.3 33.3 87.2 72.7 247.0
08/05 02:10 2.5 100 5.75 2.5 56 69 1010.3 82 13.9 24.3 33.2 86.8 72.3 245.4
08/05 02:00 2.8 100 5.87 2.8 56 83 1010.4 82 14.2 24.4 33.6 87.8 73.6 250.2
08/05 01:50 2.9 100 5.91 2.9 61 76 1010.2 81.6 14.3 24.4 33.7 88.2 74.1 251.8
08/05 01:40 3.1 100 5.99 3.1 50 59 1010.3 81.4 14.4 24.5 34.0 88.8 75.0 255.0
08/05 01:30 3.3 100 6.07 3.3 52 78 1010.2 81 14.6 24.6 34.2 89.5 75.9 258.2
08/05 01:20 3.3 100 6.07 3.3 52 59 1010.2 80.6 14.6 24.6 34.2 89.5 75.9 258.2
08/05 01:10 3.3 100 6.07 3.3 52 67 1010 79.6 14.6 24.6 34.2 89.5 75.9 258.2
08/05 01:00 3.4 100 6.11 3.4 56 80 1010.2 79.2 14.7 24.6 34.3 89.8 76.3 259.8
08/05 00:50 3.7 100 6.24 3.7 54 63 1010 79 15.0 24.8 34.7 90.9 77.8 265.1
08/05 00:40 4 100 6.36 4 50 59 1010 78.4 15.2 24.9 35.1 91.9 79.2 269.8
08/05 00:30 4.2 100 6.45 4.2 54 78 1010 77.6 15.4 25.0 35.4 92.7 80.2 273.5
08/05 00:20 4.1 100 6.41 4.1 50 63 1009.6 75.8 15.3 24.9 35.3 92.3 79.7 271.8
08/05 00:10 4.4 100 6.53 4.4 44 54 1009.9 74.6 15.6 25.0 35.6 93.3 81.1 276.6
08/05 00:00 4.1 100 6.41 4.1 61 85 1009.6 73 15.3 24.9 35.3 92.3 79.7 271.8
07/05 23:50 4.1 100 6.41 4.1 63 74 1009.3 72.4 15.3 24.9 35.2 92.3 79.7 271.7
07/05 23:40 4.4 100 6.53 4.4 65 82 1009.3 70.2 15.6 25.0 35.6 93.2 81.1 276.5
07/05 23:30 4.5 100 6.58 4.5 59 82 1009.5 69.6 15.7 25.1 35.8 93.7 81.7 278.6
07/05 23:20 4.5 100 6.58 4.5 63 76 1009.5 68.8 15.7 25.1 35.8 93.7 81.7 278.6
07/05 23:10 4.3 100 6.49 4.3 72 85 1009.2 67.2 15.5 25.0 35.5 92.9 80.6 274.9
07/05 23:00 4.5 100 6.58 4.5 65 95 1009.3 67.2 15.7 25.1 35.8 93.7 81.6 278.6
07/05 22:50 4.8 100 6.71 4.8 56 65 1009.6 66.6 15.9 25.2 36.2 94.8 83.1 283.9
07/05 22:40 4.8 100 6.71 4.8 65 78 1009.4 65.4 15.9 25.2 36.2 94.8 83.1 283.8
07/05 22:30 4.9 100 6.76 4.9 57 82 1009.5 64.4 16.0 25.3 36.4 95.2 83.7 285.9
07/05 22:20 4.9 100 6.76 4.9 56 67 1009.5 63.4 16.0 25.3 36.4 95.2 83.7 285.9
07/05 22:10 5 100 6.8 5 59 70 1009.7 62.6 16.1 25.3 36.5 95.6 84.2 287.5
07/05 22:00 4.8 100 6.71 4.8 57 80 1009.7 61 15.9 25.2 36.2 94.8 83.1 283.9
07/05 21:50 4.8 100 6.71 4.8 61 74 1009.7 60 15.9 25.2 36.2 94.8 83.1 283.9
07/05 21:40 4.8 100 6.71 4.8 54 72 1010 58.4 15.9 25.2 36.2 94.8 83.2 284.0
07/05 21:30 4.6 100 6.62 4.6 61 83 1009.7 57.6 15.7 25.1 35.9 94.1 82.1 280.2
07/05 21:20 4.5 100 6.58 4.5 72 85 1009.3 56.4 15.7 25.1 35.8 93.7 81.6 278.6
07/05 21:10 4.5 100 6.58 4.5 48 54 1010.1 55 15.7 25.1 35.8 93.8 81.7 278.8
07/05 21:00 4.4 100 6.53 4.4 59 82 1010 53 15.6 25.0 35.6 93.3 81.1 276.7
07/05 20:50 4.2 100 6.45 4.2 48 65 1010.1 51.6 15.4 25.0 35.4 92.7 80.2 273.5
07/05 20:40 4.3 100 6.49 4.3 50 59 1010.3 48.8 15.5 25.0 35.5 93.0 80.7 275.2
07/05 20:30 4.3 100 6.49 4.3 46 65 1010.4 45.8 15.5 25.0 35.5 93.0 80.7 275.2
07/05 20:20 4.2 100 6.45 4.2 57 67 1010.3 42.8 15.4 25.0 35.4 92.7 80.2 273.6
07/05 20:10 4.1 100 6.41 4.1 46 56 1010.8 40.4 15.3 25.0 35.3 92.4 79.8 272.1
07/05 20:00 3.9 100 6.32 3.9 57 76 1010.4 38.2 15.1 24.8 35.0 91.6 78.7 268.3

Last Refresh: 08-May-2026 12:08:30

Bureau of Meteorology